Time;durP1;ratioP1;P1;durP2;ratioP2;P2;SDS_P1;SDS_P2;PMS_P1;PMS_P2;Temp;Humidity;BMP_temperature;BMP_pressure;BME280_temperature;BME280_humidity;BME280_pressure;Samples;Min_cycle;Max_cycle;Signal;HPM_P1;HPM_P2
2019/09/28 00:00:00;;;;;;;1.57;1.40;;;;;;;20.69;56.46;100362.06;;;;-47
2019/09/28 00:03:00;;;;;;;3.23;1.44;;;;;;;20.69;56.44;100365.42;;;;-47
2019/09/28 00:06:00;;;;;;;1.77;1.39;;;;;;;20.69;56.47;100363.84;;;;-49
2019/09/28 00:09:00;;;;;;;1.27;1.18;;;;;;;20.69;56.50;100372.13;;;;-49
2019/09/28 00:12:00;;;;;;;1.95;1.33;;;;;;;20.68;56.49;100371.69;;;;-47
2019/09/28 00:15:00;;;;;;;1.75;1.40;;;;;;;20.68;56.44;100373.20;;;;-47
2019/09/28 00:18:00;;;;;;;1.67;1.40;;;;;;;20.67;56.44;100374.75;;;;-49
2019/09/28 00:21:00;;;;;;;1.47;1.37;;;;;;;20.66;56.45;100372.80;;;;-49
2019/09/28 00:24:00;;;;;;;1.81;1.55;;;;;;;20.67;56.46;100376.76;;;;-49
2019/09/28 00:27:00;;;;;;;1.50;1.40;;;;;;;20.66;56.46;100373.80;;;;-49
2019/09/28 00:30:00;;;;;;;1.40;1.30;;;;;;;20.66;56.48;100380.01;;;;-49
2019/09/28 00:33:00;;;;;;;1.31;1.21;;;;;;;20.65;56.47;100381.38;;;;-49
2019/09/28 00:36:00;;;;;;;1.42;1.32;;;;;;;20.65;56.44;100385.91;;;;-49
2019/09/28 00:39:00;;;;;;;1.65;1.31;;;;;;;20.65;56.47;100391.88;;;;-49
2019/09/28 00:42:00;;;;;;;1.42;1.31;;;;;;;20.65;56.42;100397.08;;;;-51
2019/09/28 00:45:00;;;;;;;1.40;1.30;;;;;;;20.64;56.45;100393.08;;;;-52
2019/09/28 00:48:01;;;;;;;1.40;1.30;;;;;;;20.64;56.48;100395.87;;;;-58
2019/09/28 00:52:00;;;;;;;1.51;1.41;;;;;;;20.64;56.48;100396.20;;;;-47
2019/09/28 00:55:00;;;;;;;1.39;1.29;;;;;;;20.63;56.50;100393.82;;;;-48
2019/09/28 00:58:00;;;;;;;1.36;1.26;;;;;;;20.62;56.45;100388.08;;;;-47
2019/09/28 01:01:00;;;;;;;1.32;1.22;;;;;;;20.63;56.47;100391.03;;;;-47
2019/09/28 01:04:00;;;;;;;1.50;1.40;;;;;;;20.63;56.47;100388.45;;;;-47
2019/09/28 01:07:00;;;;;;;1.40;1.30;;;;;;;20.63;56.46;100391.53;;;;-51
2019/09/28 01:10:00;;;;;;;1.47;1.33;;;;;;;20.62;56.46;100391.27;;;;-51
2019/09/28 01:13:00;;;;;;;1.95;1.42;;;;;;;20.62;56.47;100394.18;;;;-49
2019/09/28 01:16:00;;;;;;;1.42;1.29;;;;;;;20.62;56.50;100394.95;;;;-49
2019/09/28 01:19:00;;;;;;;1.41;1.31;;;;;;;20.62;56.46;100395.80;;;;-51
2019/09/28 01:22:00;;;;;;;1.40;1.30;;;;;;;20.60;56.46;100392.63;;;;-49
2019/09/28 01:25:00;;;;;;;1.40;1.30;;;;;;;20.61;56.47;100389.48;;;;-59
2019/09/28 01:28:00;;;;;;;1.51;1.41;;;;;;;20.61;56.44;100390.95;;;;-52
2019/09/28 01:31:00;;;;;;;1.61;1.30;;;;;;;20.60;56.47;100391.79;;;;-51
2019/09/28 01:34:00;;;;;;;1.61;1.51;;;;;;;20.61;56.50;100397.09;;;;-49
2019/09/28 01:37:00;;;;;;;1.30;1.20;;;;;;;20.61;56.51;100399.45;;;;-47
2019/09/28 01:40:00;;;;;;;1.40;1.30;;;;;;;20.60;56.48;100397.49;;;;-51
2019/09/28 01:43:00;;;;;;;1.49;1.39;;;;;;;20.60;56.49;100395.21;;;;-49
2019/09/28 01:46:00;;;;;;;1.38;1.28;;;;;;;20.59;56.50;100398.70;;;;-59
2019/09/28 01:49:00;;;;;;;1.27;1.20;;;;;;;20.59;56.47;100397.45;;;;-58
2019/09/28 01:52:00;;;;;;;1.40;1.30;;;;;;;20.59;56.50;100390.88;;;;-49
2019/09/28 01:55:00;;;;;;;1.50;1.40;;;;;;;20.59;56.49;100390.98;;;;-51
2019/09/28 01:58:00;;;;;;;1.40;1.30;;;;;;;20.59;56.45;100391.65;;;;-51
2019/09/28 02:01:00;;;;;;;1.40;1.30;;;;;;;20.58;56.49;100388.59;;;;-51
2019/09/28 02:04:00;;;;;;;2.61;1.55;;;;;;;20.58;56.50;100387.59;;;;-51
2019/09/28 02:07:00;;;;;;;1.37;1.27;;;;;;;20.57;56.49;100393.76;;;;-51
2019/09/28 02:10:00;;;;;;;1.30;1.20;;;;;;;20.57;56.49;100395.27;;;;-52
2019/09/28 02:13:00;;;;;;;1.40;1.30;;;;;;;20.57;56.48;100398.45;;;;-51
2019/09/28 02:16:00;;;;;;;1.30;1.20;;;;;;;20.57;56.46;100399.02;;;;-51
2019/09/28 02:19:00;;;;;;;1.95;1.30;;;;;;;20.57;56.43;100402.75;;;;-51
2019/09/28 02:22:00;;;;;;;1.40;1.30;;;;;;;20.57;56.47;100400.13;;;;-49
2019/09/28 02:25:00;;;;;;;1.37;1.20;;;;;;;20.56;56.50;100406.91;;;;-59
2019/09/28 02:28:00;;;;;;;1.47;1.37;;;;;;;20.57;56.47;100410.27;;;;-51
2019/09/28 02:31:00;;;;;;;1.77;1.34;;;;;;;20.57;56.47;100415.63;;;;-47
2019/09/28 02:34:00;;;;;;;1.27;1.20;;;;;;;20.56;56.49;100415.53;;;;-47
2019/09/28 02:37:00;;;;;;;1.30;1.20;;;;;;;20.56;56.49;100418.81;;;;-51
2019/09/28 02:40:00;;;;;;;1.45;1.35;;;;;;;20.56;56.49;100415.19;;;;-47
2019/09/28 02:43:00;;;;;;;1.53;1.30;;;;;;;20.56;56.46;100415.02;;;;-58
2019/09/28 02:46:00;;;;;;;1.40;1.30;;;;;;;20.55;56.46;100422.63;;;;-59
2019/09/28 02:49:00;;;;;;;1.27;1.16;;;;;;;20.56;56.47;100421.73;;;;-51
2019/09/28 02:52:00;;;;;;;1.30;1.20;;;;;;;20.55;56.48;100423.87;;;;-49
2019/09/28 02:55:00;;;;;;;1.29;1.19;;;;;;;20.54;56.46;100421.69;;;;-47
2019/09/28 02:58:00;;;;;;;1.26;1.17;;;;;;;20.54;56.48;100426.55;;;;-52
2019/09/28 03:01:00;;;;;;;1.35;1.25;;;;;;;20.54;56.45;100432.77;;;;-51
2019/09/28 03:04:00;;;;;;;1.23;1.13;;;;;;;20.55;56.47;100436.86;;;;-59
2019/09/28 03:07:00;;;;;;;1.41;1.31;;;;;;;20.54;56.47;100434.34;;;;-58
2019/09/28 03:10:00;;;;;;;1.31;1.20;;;;;;;20.54;56.46;100438.87;;;;-51
2019/09/28 03:13:00;;;;;;;1.37;1.27;;;;;;;20.54;56.43;100438.09;;;;-49
2019/09/28 03:16:00;;;;;;;1.35;1.25;;;;;;;20.55;56.44;100440.22;;;;-49
2019/09/28 03:19:00;;;;;;;1.51;1.23;;;;;;;20.53;56.44;100438.73;;;;-59
2019/09/28 03:22:00;;;;;;;1.30;1.20;;;;;;;20.52;56.44;100440.06;;;;-47
2019/09/28 03:25:00;;;;;;;1.36;1.26;;;;;;;20.53;56.46;100441.14;;;;-49
2019/09/28 03:28:00;;;;;;;1.26;1.17;;;;;;;20.53;56.45;100441.31;;;;-49
2019/09/28 03:31:00;;;;;;;1.29;1.21;;;;;;;20.53;56.40;100443.59;;;;-47
2019/09/28 03:34:00;;;;;;;1.30;1.20;;;;;;;20.52;56.44;100441.14;;;;-51
2019/09/28 03:37:00;;;;;;;1.30;1.20;;;;;;;20.52;56.47;100445.27;;;;-49
2019/09/28 03:40:00;;;;;;;1.37;1.27;;;;;;;20.53;56.44;100452.22;;;;-48
2019/09/28 03:43:00;;;;;;;1.37;1.27;;;;;;;20.52;56.45;100452.05;;;;-51
2019/09/28 03:46:00;;;;;;;1.30;1.20;;;;;;;20.52;56.45;100457.14;;;;-49
2019/09/28 03:49:00;;;;;;;1.38;1.28;;;;;;;20.51;56.47;100453.02;;;;-59
2019/09/28 03:52:00;;;;;;;1.35;1.27;;;;;;;20.52;56.45;100451.00;;;;-59
2019/09/28 03:55:00;;;;;;;1.29;1.19;;;;;;;20.52;56.45;100462.41;;;;-52
2019/09/28 03:58:00;;;;;;;1.28;1.20;;;;;;;20.51;56.44;100465.09;;;;-51
2019/09/28 04:01:00;;;;;;;1.38;1.23;;;;;;;20.50;56.46;100456.39;;;;-47
2019/09/28 04:04:00;;;;;;;1.37;1.27;;;;;;;20.51;56.46;100454.48;;;;-47
2019/09/28 04:07:00;;;;;;;1.38;1.28;;;;;;;20.50;56.43;100457.84;;;;-59
2019/09/28 04:10:00;;;;;;;1.34;1.24;;;;;;;20.50;56.42;100461.97;;;;-49
2019/09/28 04:13:00;;;;;;;1.35;1.25;;;;;;;20.50;56.43;100462.09;;;;-51
2019/09/28 04:16:00;;;;;;;1.25;1.15;;;;;;;20.50;56.45;100462.83;;;;-51
2019/09/28 04:19:00;;;;;;;1.30;1.20;;;;;;;20.50;56.43;100464.95;;;;-47
2019/09/28 04:22:00;;;;;;;1.13;1.12;;;;;;;20.50;56.46;100458.23;;;;-46
2019/09/28 04:25:00;;;;;;;1.94;1.32;;;;;;;20.50;56.45;100461.09;;;;-52
2019/09/28 04:28:00;;;;;;;1.44;1.33;;;;;;;20.50;56.40;100462.66;;;;-51
2019/09/28 04:31:00;;;;;;;1.13;1.10;;;;;;;20.50;56.38;100464.84;;;;-59
2019/09/28 04:34:00;;;;;;;1.10;1.10;;;;;;;20.49;56.40;100463.09;;;;-47
2019/09/28 04:37:00;;;;;;;1.10;1.10;;;;;;;20.49;56.40;100466.41;;;;-48
2019/09/28 04:40:00;;;;;;;1.40;1.30;;;;;;;20.48;56.38;100469.60;;;;-59
2019/09/28 04:43:00;;;;;;;1.27;1.18;;;;;;;20.49;56.37;100471.95;;;;-52
2019/09/28 04:46:00;;;;;;;1.63;1.35;;;;;;;20.49;56.40;100473.63;;;;-51
2019/09/28 04:49:00;;;;;;;1.30;1.20;;;;;;;20.48;56.39;100470.00;;;;-51
2019/09/28 04:52:00;;;;;;;1.30;1.20;;;;;;;20.48;56.40;100462.55;;;;-51
2019/09/28 04:55:00;;;;;;;1.15;1.13;;;;;;;20.48;56.41;100460.61;;;;-52
2019/09/28 04:58:00;;;;;;;1.23;1.15;;;;;;;20.47;56.41;100454.42;;;;-51
2019/09/28 05:01:00;;;;;;;1.23;1.13;;;;;;;20.48;56.41;100452.69;;;;-48
2019/09/28 05:04:00;;;;;;;1.22;1.17;;;;;;;20.47;56.40;100454.13;;;;-59
2019/09/28 05:07:00;;;;;;;1.30;1.20;;;;;;;20.47;56.38;100450.91;;;;-58
2019/09/28 05:10:00;;;;;;;1.31;1.21;;;;;;;20.47;56.39;100456.04;;;;-59
2019/09/28 05:13:00;;;;;;;1.39;1.29;;;;;;;20.47;56.40;100460.84;;;;-47
2019/09/28 05:16:00;;;;;;;1.17;1.17;;;;;;;20.47;56.39;100467.61;;;;-47
2019/09/28 05:19:00;;;;;;;1.27;1.18;;;;;;;20.47;56.38;100455.20;;;;-58
2019/09/28 05:22:00;;;;;;;1.29;1.19;;;;;;;20.47;56.35;100462.23;;;;-59
2019/09/28 05:25:00;;;;;;;1.14;1.10;;;;;;;20.46;56.36;100472.20;;;;-59
2019/09/28 05:28:00;;;;;;;1.25;1.17;;;;;;;20.47;56.37;100472.55;;;;-49
2019/09/28 05:31:00;;;;;;;1.19;1.11;;;;;;;20.47;56.35;100476.00;;;;-51
2019/09/28 05:34:00;;;;;;;1.32;1.20;;;;;;;20.46;56.35;100478.81;;;;-52
2019/09/28 05:37:00;;;;;;;1.37;1.28;;;;;;;20.46;56.36;100480.98;;;;-51
2019/09/28 05:40:00;;;;;;;1.23;1.19;;;;;;;20.46;56.38;100489.15;;;;-51
2019/09/28 05:43:00;;;;;;;1.30;1.20;;;;;;;20.46;56.35;100485.86;;;;-51
2019/09/28 05:46:00;;;;;;;1.13;1.13;;;;;;;20.45;56.36;100485.59;;;;-51
2019/09/28 05:49:00;;;;;;;1.54;1.28;;;;;;;20.45;56.35;100487.33;;;;-59
2019/09/28 05:52:00;;;;;;;1.06;1.06;;;;;;;20.45;56.34;100492.52;;;;-58
2019/09/28 05:55:00;;;;;;;1.29;1.19;;;;;;;20.46;56.35;100492.56;;;;-58
2019/09/28 05:58:00;;;;;;;1.23;1.15;;;;;;;20.45;56.38;100498.06;;;;-58
2019/09/28 06:01:00;;;;;;;1.13;1.10;;;;;;;20.45;56.37;100505.84;;;;-49
2019/09/28 06:04:00;;;;;;;1.21;1.11;;;;;;;20.45;56.34;100507.45;;;;-47
2019/09/28 06:07:00;;;;;;;1.12;1.10;;;;;;;20.45;56.31;100507.28;;;;-52
2019/09/28 06:10:00;;;;;;;1.30;1.20;;;;;;;20.44;56.34;100516.23;;;;-59
2019/09/28 06:13:00;;;;;;;1.35;1.25;;;;;;;20.44;56.34;100523.62;;;;-59
2019/09/28 06:16:00;;;;;;;1.15;1.11;;;;;;;20.44;56.35;100522.52;;;;-58
2019/09/28 06:19:00;;;;;;;1.11;1.08;;;;;;;20.43;56.37;100529.69;;;;-49
2019/09/28 06:22:00;;;;;;;1.25;1.15;;;;;;;20.44;56.34;100531.80;;;;-59
2019/09/28 06:25:00;;;;;;;1.20;1.10;;;;;;;20.44;56.39;100532.07;;;;-58
2019/09/28 06:28:00;;;;;;;1.28;1.19;;;;;;;20.43;56.33;100523.38;;;;-58
2019/09/28 06:31:00;;;;;;;1.29;1.19;;;;;;;20.44;56.35;100524.36;;;;-59
2019/09/28 06:34:00;;;;;;;1.38;1.28;;;;;;;20.43;56.35;100524.15;;;;-59
2019/09/28 06:37:00;;;;;;;1.14;1.14;;;;;;;20.43;56.36;100534.55;;;;-58
2019/09/28 06:40:00;;;;;;;1.21;1.11;;;;;;;20.43;56.37;100542.33;;;;-58
2019/09/28 06:43:00;;;;;;;1.19;1.10;;;;;;;20.43;56.35;100548.64;;;;-49
2019/09/28 06:46:00;;;;;;;1.10;1.10;;;;;;;20.43;56.34;100548.97;;;;-59
2019/09/28 06:49:00;;;;;;;1.20;1.10;;;;;;;20.43;56.35;100551.72;;;;-51
2019/09/28 06:52:00;;;;;;;1.12;1.11;;;;;;;20.42;56.35;100550.95;;;;-48
2019/09/28 06:55:00;;;;;;;1.20;1.10;;;;;;;20.42;56.29;100555.41;;;;-50
2019/09/28 06:58:00;;;;;;;1.10;1.10;;;;;;;20.43;56.30;100560.11;;;;-49
2019/09/28 07:01:00;;;;;;;1.30;1.20;;;;;;;20.43;56.32;100562.23;;;;-49
2019/09/28 07:04:00;;;;;;;1.20;1.10;;;;;;;20.43;56.32;100555.52;;;;-49
2019/09/28 07:07:00;;;;;;;1.15;1.10;;;;;;;20.43;56.33;100560.11;;;;-49
2019/09/28 07:10:00;;;;;;;1.10;1.10;;;;;;;20.43;56.32;100557.19;;;;-47
2019/09/28 07:13:01;;;;;;;1.10;1.10;;;;;;;20.42;56.29;100562.69;;;;-59
2019/09/28 07:16:00;;;;;;;1.25;1.20;;;;;;;20.42;56.30;100564.94;;;;-58
2019/09/28 07:19:00;;;;;;;1.30;1.20;;;;;;;20.44;56.31;100567.88;;;;-60
2019/09/28 07:22:00;;;;;;;1.02;1.02;;;;;;;20.45;56.28;100565.84;;;;-58
2019/09/28 07:25:00;;;;;;;1.57;1.28;;;;;;;20.47;56.41;100570.84;;;;-58
2019/09/28 07:28:00;;;;;;;3.02;1.45;;;;;;;20.49;56.52;100569.32;;;;-59
2019/09/28 07:31:00;;;;;;;1.75;1.20;;;;;;;20.50;56.54;100566.72;;;;-59
2019/09/28 07:34:00;;;;;;;1.34;1.24;;;;;;;20.50;56.51;100563.97;;;;-58
2019/09/28 07:37:00;;;;;;;1.55;1.31;;;;;;;20.50;56.52;100564.88;;;;-59
2019/09/28 07:40:00;;;;;;;1.91;1.37;;;;;;;20.51;56.50;100567.03;;;;-58
2019/09/28 07:43:00;;;;;;;1.40;1.30;;;;;;;20.51;56.44;100569.91;;;;-58
2019/09/28 07:46:00;;;;;;;5.55;1.39;;;;;;;20.53;56.59;100570.80;;;;-56
2019/09/28 07:49:00;;;;;;;2.75;1.42;;;;;;;20.53;56.58;100573.22;;;;-57
2019/09/28 07:52:00;;;;;;;1.95;1.39;;;;;;;20.55;56.61;100576.79;;;;-48
2019/09/28 07:55:00;;;;;;;2.28;1.35;;;;;;;20.55;56.63;100578.40;;;;-49
2019/09/28 07:58:00;;;;;;;1.92;1.38;;;;;;;20.56;56.78;100579.55;;;;-52
2019/09/28 08:01:00;;;;;;;2.23;1.45;;;;;;;20.59;56.82;100588.64;;;;-50
2019/09/28 08:04:00;;;;;;;1.93;1.30;;;;;;;20.61;56.83;100591.64;;;;-52
2019/09/28 08:07:00;;;;;;;1.52;1.13;;;;;;;20.62;56.80;100586.75;;;;-51
2019/09/28 08:10:00;;;;;;;1.62;1.20;;;;;;;20.63;56.83;100586.86;;;;-50
2019/09/28 08:13:00;;;;;;;2.13;1.21;;;;;;;20.66;56.91;100591.11;;;;-49
2019/09/28 08:16:00;;;;;;;1.69;1.29;;;;;;;20.66;56.80;100601.75;;;;-50
2019/09/28 08:19:00;;;;;;;2.07;1.22;;;;;;;20.65;56.72;100595.17;;;;-48
2019/09/28 08:22:00;;;;;;;1.67;1.29;;;;;;;20.67;56.74;100596.02;;;;-51
2019/09/28 08:25:00;;;;;;;2.75;1.48;;;;;;;20.67;56.81;100593.67;;;;-45
2019/09/28 08:28:00;;;;;;;3.68;1.61;;;;;;;20.66;56.94;100597.05;;;;-50
2019/09/28 08:31:00;;;;;;;5.97;1.67;;;;;;;20.66;57.08;100600.00;;;;-53
2019/09/28 08:34:00;;;;;;;3.67;1.53;;;;;;;20.68;57.27;100604.36;;;;-48
2019/09/28 08:37:00;;;;;;;4.14;1.45;;;;;;;20.71;57.37;100605.76;;;;-51
2019/09/28 08:40:00;;;;;;;6.43;1.52;;;;;;;20.73;57.15;100604.73;;;;-49
2019/09/28 08:43:00;;;;;;;2.97;1.49;;;;;;;20.74;57.15;100615.24;;;;-49
2019/09/28 08:46:00;;;;;;;2.45;1.40;;;;;;;20.75;57.05;100616.30;;;;-50
2019/09/28 08:49:00;;;;;;;3.25;1.51;;;;;;;20.75;57.11;100614.66;;;;-56
2019/09/28 08:52:00;;;;;;;2.19;1.48;;;;;;;20.78;57.05;100619.03;;;;-56
2019/09/28 08:55:00;;;;;;;2.81;1.43;;;;;;;20.78;57.05;100620.88;;;;-50
2019/09/28 08:58:00;;;;;;;3.91;1.55;;;;;;;20.79;56.98;100628.55;;;;-51
2019/09/28 09:01:00;;;;;;;2.41;1.23;;;;;;;20.79;56.92;100629.59;;;;-53
2019/09/28 09:04:00;;;;;;;1.85;1.30;;;;;;;20.80;57.03;100631.84;;;;-54
2019/09/28 09:07:00;;;;;;;2.37;1.23;;;;;;;20.81;56.86;100628.09;;;;-56
2019/09/28 09:10:00;;;;;;;2.38;1.28;;;;;;;20.82;56.87;100636.77;;;;-50
2019/09/28 09:13:00;;;;;;;2.31;1.40;;;;;;;20.83;56.90;100632.81;;;;-49
2019/09/28 09:16:00;;;;;;;2.42;1.30;;;;;;;20.83;56.94;100634.83;;;;-50
2019/09/28 09:21:00;;;;;;;3.02;1.20;;;;;;;20.84;56.93;100632.81;;;;-50
2019/09/28 09:26:00;;;;;;;8.69;1.56;;;;;;;20.86;57.15;100637.67;;;;-50
2019/09/28 09:29:00;;;;;;;5.21;1.40;;;;;;;20.86;57.20;100641.70;;;;-61
2019/09/28 09:32:00;;;;;;;4.21;1.50;;;;;;;20.85;57.21;100647.50;;;;-47
2019/09/28 09:35:00;;;;;;;4.67;1.49;;;;;;;20.86;57.11;100641.16;;;;-55
2019/09/28 09:38:00;;;;;;;5.32;1.46;;;;;;;20.87;57.09;100637.54;;;;-49
2019/09/28 09:41:00;;;;;;;4.63;1.73;;;;;;;20.88;57.10;100646.08;;;;-54
2019/09/28 09:44:00;;;;;;;3.11;1.27;;;;;;;20.88;57.07;100643.45;;;;-47
2019/09/28 09:47:00;;;;;;;2.83;1.51;;;;;;;20.88;57.03;100643.66;;;;-57
2019/09/28 09:50:00;;;;;;;4.19;1.29;;;;;;;20.89;57.02;100651.83;;;;-57
2019/09/28 09:53:00;;;;;;;2.99;1.28;;;;;;;20.90;56.99;100654.22;;;;-48
2019/09/28 09:56:00;;;;;;;2.95;1.29;;;;;;;20.91;56.94;100648.16;;;;-47
2019/09/28 09:59:00;;;;;;;2.41;1.21;;;;;;;20.91;56.90;100649.39;;;;-49
2019/09/28 10:02:00;;;;;;;3.01;1.39;;;;;;;20.93;56.94;100653.73;;;;-51
2019/09/28 10:05:11;;;;;;;2.09;1.32;;;;;;;20.92;56.92;100652.19;;;;-50
2019/09/28 10:08:00;;;;;;;3.49;1.35;;;;;;;20.92;57.05;100655.98;;;;-50
2019/09/28 10:11:00;;;;;;;3.00;1.37;;;;;;;20.93;56.92;100656.19;;;;-51
2019/09/28 10:14:00;;;;;;;3.34;1.30;;;;;;;20.92;56.86;100653.73;;;;-57
2019/09/28 10:17:00;;;;;;;2.83;1.24;;;;;;;20.93;56.95;100663.41;;;;-59
2019/09/28 10:20:00;;;;;;;3.00;1.41;;;;;;;20.93;56.82;100653.00;;;;-50
2019/09/28 10:23:00;;;;;;;2.39;1.30;;;;;;;20.93;56.79;100642.99;;;;-50
2019/09/28 10:26:00;;;;;;;3.14;1.35;;;;;;;20.93;56.71;100643.33;;;;-50
2019/09/28 10:29:00;;;;;;;2.89;1.27;;;;;;;20.92;56.66;100648.16;;;;-59
2019/09/28 10:32:00;;;;;;;3.94;1.35;;;;;;;20.91;56.64;100645.09;;;;-59
2019/09/28 10:35:00;;;;;;;1.89;1.39;;;;;;;20.90;56.63;100641.39;;;;-47
2019/09/28 10:38:00;;;;;;;10.31;1.79;;;;;;;20.90;56.79;100649.45;;;;-49
2019/09/28 10:41:00;;;;;;;15.57;1.89;;;;;;;20.92;56.86;100645.41;;;;-58
2019/09/28 10:44:00;;;;;;;11.76;1.95;;;;;;;20.94;56.92;100646.66;;;;-57
2019/09/28 10:47:00;;;;;;;5.13;1.55;;;;;;;20.94;56.85;100650.70;;;;-61
2019/09/28 10:51:00;;;;;;;7.14;1.68;;;;;;;20.94;56.81;100652.81;;;;-60
2019/09/28 10:54:00;;;;;;;5.73;1.59;;;;;;;20.95;56.68;100650.67;;;;-61
2019/09/28 10:58:00;;;;;;;6.23;1.49;;;;;;;20.96;56.79;100647.19;;;;-50
2019/09/28 11:01:00;;;;;;;8.25;1.67;;;;;;;20.95;56.71;100656.68;;;;-58
2019/09/28 11:04:00;;;;;;;5.09;1.61;;;;;;;20.96;56.70;100651.52;;;;-58
2019/09/28 11:07:00;;;;;;;5.87;1.52;;;;;;;20.95;56.65;100653.42;;;;-58
2019/09/28 11:10:00;;;;;;;5.62;1.41;;;;;;;20.95;56.62;100658.30;;;;-58
2019/09/28 11:13:00;;;;;;;6.03;1.59;;;;;;;20.93;56.58;100653.34;;;;-58
2019/09/28 11:16:00;;;;;;;6.01;1.62;;;;;;;20.93;56.52;100647.86;;;;-48
2019/09/28 11:19:00;;;;;;;7.96;1.69;;;;;;;20.91;56.75;100650.33;;;;-45
2019/09/28 11:22:00;;;;;;;3.43;1.41;;;;;;;20.94;56.63;100646.83;;;;-47
2019/09/28 11:24:59;;;;;;;6.78;1.49;;;;;;;20.95;56.63;100652.66;;;;-48
2019/09/28 11:27:59;;;;;;;7.31;1.71;;;;;;;20.94;56.81;100648.84;;;;-47
2019/09/28 11:31:00;;;;;;;3.43;1.43;;;;;;;20.94;56.56;100644.81;;;;-47
2019/09/28 11:34:00;;;;;;;4.91;1.60;;;;;;;20.94;56.54;100643.81;;;;-46
2019/09/28 11:37:00;;;;;;;5.70;1.49;;;;;;;20.93;56.45;100633.30;;;;-46
2019/09/28 11:40:00;;;;;;;4.47;1.58;;;;;;;20.94;56.50;100633.73;;;;-47
2019/09/28 11:43:00;;;;;;;5.06;1.60;;;;;;;20.94;56.46;100634.74;;;;-47
2019/09/28 11:45:59;;;;;;;2.97;1.36;;;;;;;20.92;56.42;100637.95;;;;-46
2019/09/28 11:48:59;;;;;;;5.03;1.45;;;;;;;20.92;56.41;100628.55;;;;-46
2019/09/28 11:52:00;;;;;;;3.73;1.43;;;;;;;20.91;56.36;100624.48;;;;-46
2019/09/28 11:54:59;;;;;;;4.90;1.50;;;;;;;20.91;56.35;100613.64;;;;-46
2019/09/28 11:58:00;;;;;;;3.27;1.62;;;;;;;20.92;56.30;100622.58;;;;-46
2019/09/28 12:01:00;;;;;;;8.14;1.61;;;;;;;20.91;56.30;100625.72;;;;-47
2019/09/28 12:04:00;;;;;;;3.58;1.37;;;;;;;20.91;56.24;100613.63;;;;-46
2019/09/28 12:07:00;;;;;;;4.33;1.57;;;;;;;20.90;56.28;100624.94;;;;-46
2019/09/28 12:10:00;;;;;;;2.47;1.29;;;;;;;20.90;56.23;100617.13;;;;-54
2019/09/28 12:13:00;;;;;;;4.68;1.49;;;;;;;20.90;56.23;100610.64;;;;-49
2019/09/28 12:16:00;;;;;;;3.15;1.47;;;;;;;20.90;56.18;100612.35;;;;-48
2019/09/28 12:19:00;;;;;;;5.21;1.47;;;;;;;20.90;56.20;100617.19;;;;-50
2019/09/28 12:21:59;;;;;;;3.65;1.45;;;;;;;20.89;56.18;100617.52;;;;-50
2019/09/28 12:25:00;;;;;;;2.69;1.30;;;;;;;20.89;56.20;100614.33;;;;-50
2019/09/28 12:28:00;;;;;;;3.07;1.49;;;;;;;20.90;56.23;100620.54;;;;-47
2019/09/28 12:31:00;;;;;;;3.59;1.51;;;;;;;20.88;56.32;100619.32;;;;-52
2019/09/28 12:34:00;;;;;;;2.43;1.40;;;;;;;20.90;56.37;100617.95;;;;-50
2019/09/28 12:37:00;;;;;;;2.85;1.44;;;;;;;20.91;56.43;100614.98;;;;-56
2019/09/28 12:40:00;;;;;;;3.03;1.27;;;;;;;20.93;56.47;100618.25;;;;-51
2019/09/28 12:42:59;;;;;;;3.05;1.43;;;;;;;20.95;56.54;100618.33;;;;-51
2019/09/28 12:45:59;;;;;;;7.35;1.45;;;;;;;20.94;56.55;100614.87;;;;-50
2019/09/28 12:48:59;;;;;;;3.35;1.64;;;;;;;20.94;56.60;100615.54;;;;-51
2019/09/28 12:51:59;;;;;;;5.42;1.50;;;;;;;20.95;56.61;100609.27;;;;-50
2019/09/28 12:55:00;;;;;;;2.53;1.39;;;;;;;20.96;56.57;100606.55;;;;-52
2019/09/28 12:58:00;;;;;;;3.23;1.21;;;;;;;20.97;56.60;100610.13;;;;-50
2019/09/28 13:01:00;;;;;;;1.48;1.22;;;;;;;20.98;56.58;100605.53;;;;-50
2019/09/28 13:04:00;;;;;;;2.47;1.50;;;;;;;20.99;56.66;100604.55;;;;-50
2019/09/28 13:07:00;;;;;;;2.85;1.48;;;;;;;20.99;56.66;100606.91;;;;-56
2019/09/28 13:09:59;;;;;;;2.38;1.36;;;;;;;20.99;56.67;100607.41;;;;-59
2019/09/28 13:12:59;;;;;;;2.77;1.31;;;;;;;21.01;56.72;100608.67;;;;-55
2019/09/28 13:16:00;;;;;;;4.61;1.45;;;;;;;20.98;56.61;100600.49;;;;-57
2019/09/28 13:19:01;;;;;;;4.44;1.53;;;;;;;21.00;56.74;100603.36;;;;-46
2019/09/28 13:21:59;;;;;;;2.96;1.40;;;;;;;21.00;56.68;100603.02;;;;-47
2019/09/28 13:24:59;;;;;;;2.04;1.33;;;;;;;20.99;56.65;100595.22;;;;-56
2019/09/28 13:28:00;;;;;;;2.10;1.50;;;;;;;20.99;56.64;100595.09;;;;-58
2019/09/28 13:31:00;;;;;;;3.63;1.33;;;;;;;21.00;56.67;100592.11;;;;-57
2019/09/28 13:33:59;;;;;;;2.99;1.53;;;;;;;21.01;56.69;100594.56;;;;-58
2019/09/28 13:37:00;;;;;;;6.95;1.60;;;;;;;21.03;56.68;100588.43;;;;-62
2019/09/28 13:40:00;;;;;;;2.59;1.42;;;;;;;21.04;56.64;100590.55;;;;-56
2019/09/28 13:42:59;;;;;;;2.44;1.44;;;;;;;21.04;56.64;100585.18;;;;-60
2019/09/28 13:45:59;;;;;;;3.52;1.26;;;;;;;21.03;56.68;100587.19;;;;-51
2019/09/28 13:49:00;;;;;;;2.97;1.49;;;;;;;21.04;56.64;100583.88;;;;-49
2019/09/28 13:52:00;;;;;;;3.51;1.45;;;;;;;21.05;56.54;100583.04;;;;-59
2019/09/28 13:55:00;;;;;;;2.25;1.31;;;;;;;21.04;56.61;100583.91;;;;-58
2019/09/28 13:57:59;;;;;;;2.26;1.40;;;;;;;21.02;56.56;100584.53;;;;-51
2019/09/28 14:01:00;;;;;;;2.49;1.33;;;;;;;21.01;56.55;100580.47;;;;-51
2019/09/28 14:04:00;;;;;;;1.77;1.27;;;;;;;21.01;56.50;100590.64;;;;-51
2019/09/28 14:07:00;;;;;;;2.11;1.31;;;;;;;21.01;56.44;100585.44;;;;-50
2019/09/28 14:10:00;;;;;;;1.88;1.32;;;;;;;21.00;56.43;100589.83;;;;-51
2019/09/28 14:12:59;;;;;;;2.90;1.50;;;;;;;21.01;56.38;100594.06;;;;-51
2019/09/28 14:15:59;;;;;;;1.45;1.28;;;;;;;20.99;56.38;100589.02;;;;-51
2019/09/28 14:19:00;;;;;;;2.40;1.36;;;;;;;20.98;56.36;100578.77;;;;-51
2019/09/28 14:22:00;;;;;;;1.76;1.33;;;;;;;20.98;56.33;100579.67;;;;-50
2019/09/28 14:25:00;;;;;;;2.13;1.34;;;;;;;20.98;56.32;100582.63;;;;-50
2019/09/28 14:27:59;;;;;;;1.95;1.27;;;;;;;20.97;56.28;100591.05;;;;-51
2019/09/28 14:31:00;;;;;;;1.73;1.43;;;;;;;20.97;56.28;100592.73;;;;-51
2019/09/28 14:33:59;;;;;;;1.41;1.29;;;;;;;20.97;56.27;100589.20;;;;-51
2019/09/28 14:37:00;;;;;;;1.48;1.27;;;;;;;20.97;56.21;100582.98;;;;-51
2019/09/28 14:39:59;;;;;;;2.70;1.30;;;;;;;20.97;56.21;100591.89;;;;-51
2019/09/28 14:42:59;;;;;;;2.67;1.31;;;;;;;20.97;56.17;100594.57;;;;-51
2019/09/28 14:46:00;;;;;;;3.17;1.30;;;;;;;20.96;56.18;100599.91;;;;-52
2019/09/28 14:49:00;;;;;;;1.40;1.20;;;;;;;20.95;56.15;100592.92;;;;-51
2019/09/28 14:52:00;;;;;;;1.49;1.31;;;;;;;20.95;56.14;100598.52;;;;-52
2019/09/28 14:54:59;;;;;;;1.53;1.20;;;;;;;20.94;56.16;100592.27;;;;-51
2019/09/28 14:58:00;;;;;;;2.47;1.49;;;;;;;20.94;56.16;100588.00;;;;-48
2019/09/28 15:01:00;;;;;;;2.08;1.24;;;;;;;20.94;56.18;100593.20;;;;-48
2019/09/28 15:04:00;;;;;;;1.53;1.30;;;;;;;20.94;56.15;100589.91;;;;-51
2019/09/28 15:07:00;;;;;;;3.54;1.40;;;;;;;20.94;56.10;100589.75;;;;-51
2019/09/28 15:10:00;;;;;;;2.90;1.36;;;;;;;20.94;56.11;100587.06;;;;-51
2019/09/28 15:13:00;;;;;;;2.82;1.40;;;;;;;20.94;56.09;100585.89;;;;-51
2019/09/28 15:16:00;;;;;;;2.59;1.29;;;;;;;20.93;56.09;100587.19;;;;-51
2019/09/28 15:18:59;;;;;;;2.34;1.20;;;;;;;20.93;56.10;100580.74;;;;-55
2019/09/28 15:22:00;;;;;;;2.83;1.30;;;;;;;20.90;55.39;100581.93;;;;-51
2019/09/28 15:25:00;;;;;;;2.51;1.37;;;;;;;20.84;55.37;100584.58;;;;-50
2019/09/28 15:27:59;;;;;;;6.96;1.65;;;;;;;20.80;55.32;100582.66;;;;-50
2019/09/28 15:31:00;;;;;;;2.48;1.41;;;;;;;20.77;55.29;100573.01;;;;-50
2019/09/28 15:34:00;;;;;;;2.39;1.71;;;;;;;20.75;55.30;100571.34;;;;-50
2019/09/28 15:36:59;;;;;;;3.11;1.48;;;;;;;20.80;55.41;100571.58;;;;-50
2019/09/28 15:40:00;;;;;;;4.72;1.70;;;;;;;20.83;55.53;100574.77;;;;-50
2019/09/28 15:42:59;;;;;;;3.49;1.60;;;;;;;20.86;55.64;100570.66;;;;-48
2019/09/28 15:46:00;;;;;;;2.01;1.48;;;;;;;20.87;55.75;100567.98;;;;-48
2019/09/28 15:49:00;;;;;;;2.95;1.30;;;;;;;20.87;55.89;100570.16;;;;-49
2019/09/28 15:51:59;;;;;;;2.11;1.47;;;;;;;20.89;55.94;100570.91;;;;-50
2019/09/28 15:55:00;;;;;;;2.20;1.42;;;;;;;20.90;56.08;100567.42;;;;-49
2019/09/28 15:57:59;;;;;;;2.63;1.53;;;;;;;20.93;56.09;100569.39;;;;-49
2019/09/28 16:01:00;;;;;;;4.60;1.45;;;;;;;20.94;56.11;100572.13;;;;-49
2019/09/28 16:04:00;;;;;;;4.91;1.55;;;;;;;20.96;56.07;100569.12;;;;-50
2019/09/28 16:06:59;;;;;;;3.39;1.45;;;;;;;20.96;56.19;100566.77;;;;-51
2019/09/28 16:10:00;;;;;;;3.53;1.58;;;;;;;20.98;56.22;100569.26;;;;-59
2019/09/28 16:12:59;;;;;;;2.88;1.49;;;;;;;20.98;56.23;100569.27;;;;-59
2019/09/28 16:16:00;;;;;;;1.93;1.43;;;;;;;21.00;56.20;100574.11;;;;-59
2019/09/28 16:19:00;;;;;;;1.92;1.49;;;;;;;20.99;56.26;100570.64;;;;-57
2019/09/28 16:21:59;;;;;;;1.89;1.42;;;;;;;20.99;56.26;100569.97;;;;-52
2019/09/28 16:25:00;;;;;;;1.84;1.46;;;;;;;21.00;56.30;100575.28;;;;-52
2019/09/28 16:28:00;;;;;;;2.57;1.39;;;;;;;21.01;56.31;100579.39;;;;-51
2019/09/28 16:31:00;;;;;;;3.99;1.35;;;;;;;21.01;56.29;100570.05;;;;-57
2019/09/28 16:34:00;;;;;;;1.97;1.14;;;;;;;21.03;56.33;100571.64;;;;-52
2019/09/28 16:36:59;;;;;;;2.43;1.35;;;;;;;21.03;56.32;100566.10;;;;-50
2019/09/28 16:40:00;;;;;;;3.23;1.31;;;;;;;21.05;56.30;100568.83;;;;-47
2019/09/28 16:43:00;;;;;;;2.79;1.45;;;;;;;21.05;56.36;100569.61;;;;-52
2019/09/28 16:46:00;;;;;;;2.54;1.42;;;;;;;21.05;56.33;100570.01;;;;-47
2019/09/28 16:49:00;;;;;;;2.35;1.37;;;;;;;21.05;56.38;100571.95;;;;-48